sensor_id;sensor_type;location;lat;lon;timestamp;pressure;altitude;pressure_sealevel;temperature;humidity
75936;BME280;64614;32.062;34.834;2023-02-17T00:01:23;102161.28;;;21.70;44.33
75936;BME280;64614;32.062;34.834;2023-02-17T00:03:50;102159.91;;;21.67;44.10
75936;BME280;64614;32.062;34.834;2023-02-17T00:06:22;102159.34;;;21.65;44.44
75936;BME280;64614;32.062;34.834;2023-02-17T00:08:48;102163.97;;;21.65;44.18
75936;BME280;64614;32.062;34.834;2023-02-17T00:11:14;102157.69;;;21.64;44.17
75936;BME280;64614;32.062;34.834;2023-02-17T00:13:40;102160.72;;;21.63;44.46
75936;BME280;64614;32.062;34.834;2023-02-17T00:16:09;102158.22;;;21.61;44.32
75936;BME280;64614;32.062;34.834;2023-02-17T00:18:35;102153.84;;;21.60;44.26
75936;BME280;64614;32.062;34.834;2023-02-17T00:21:21;102152.22;;;21.59;44.30
75936;BME280;64614;32.062;34.834;2023-02-17T00:23:48;102154.13;;;21.58;44.45
75936;BME280;64614;32.062;34.834;2023-02-17T00:26:15;102161.72;;;21.56;44.46
75936;BME280;64614;32.062;34.834;2023-02-17T00:28:42;102157.34;;;21.55;44.17
75936;BME280;64614;32.062;34.834;2023-02-17T00:31:09;102153.81;;;21.55;44.24
75936;BME280;64614;32.062;34.834;2023-02-17T00:33:35;102151.34;;;21.53;44.37
75936;BME280;64614;32.062;34.834;2023-02-17T00:36:06;102156.00;;;21.53;44.48
75936;BME280;64614;32.062;34.834;2023-02-17T00:38:33;102158.72;;;21.53;44.33
75936;BME280;64614;32.062;34.834;2023-02-17T00:41:00;102153.53;;;21.51;44.63
75936;BME280;64614;32.062;34.834;2023-02-17T00:43:26;102152.72;;;21.51;44.50
75936;BME280;64614;32.062;34.834;2023-02-17T00:45:53;102154.63;;;21.50;44.67
75936;BME280;64614;32.062;34.834;2023-02-17T00:48:19;102161.72;;;21.51;44.46
75936;BME280;64614;32.062;34.834;2023-02-17T00:50:45;102162.28;;;21.53;44.54
75936;BME280;64614;32.062;34.834;2023-02-17T00:53:11;102150.22;;;21.49;44.44
75936;BME280;64614;32.062;34.834;2023-02-17T00:55:37;102165.00;;;21.48;44.66
75936;BME280;64614;32.062;34.834;2023-02-17T00:58:04;102157.06;;;21.47;44.70
75936;BME280;64614;32.062;34.834;2023-02-17T01:00:29;102157.88;;;21.47;44.46
75936;BME280;64614;32.062;34.834;2023-02-17T01:02:55;102154.59;;;21.45;44.48
75936;BME280;64614;32.062;34.834;2023-02-17T01:05:20;102158.16;;;21.45;44.46
75936;BME280;64614;32.062;34.834;2023-02-17T01:07:46;102157.34;;;21.45;44.70
75936;BME280;64614;32.062;34.834;2023-02-17T01:10:12;102168.53;;;21.43;44.68
75936;BME280;64614;32.062;34.834;2023-02-17T01:12:38;102159.50;;;21.43;44.44
75936;BME280;64614;32.062;34.834;2023-02-17T01:15:04;102162.25;;;21.43;44.60
75936;BME280;64614;32.062;34.834;2023-02-17T01:17:30;102157.06;;;21.41;44.38
75936;BME280;64614;32.062;34.834;2023-02-17T01:19:57;102157.88;;;21.42;44.47
75936;BME280;64614;32.062;34.834;2023-02-17T01:22:22;102158.94;;;21.41;44.61
75936;BME280;64614;32.062;34.834;2023-02-17T01:24:48;102168.53;;;21.43;44.62
75936;BME280;64614;32.062;34.834;2023-02-17T01:27:14;102161.69;;;21.41;44.64
75936;BME280;64614;32.062;34.834;2023-02-17T01:29:39;102159.78;;;21.41;44.30
75936;BME280;64614;32.062;34.834;2023-02-17T01:32:05;102170.97;;;21.40;44.47
75936;BME280;64614;32.062;34.834;2023-02-17T01:34:31;102168.22;;;21.40;44.48
75936;BME280;64614;32.062;34.834;2023-02-17T01:36:56;102166.06;;;21.37;44.56
75936;BME280;64614;32.062;34.834;2023-02-17T01:39:22;102169.59;;;21.37;44.45
75936;BME280;64614;32.062;34.834;2023-02-17T01:41:48;102175.88;;;21.38;44.69
75936;BME280;64614;32.062;34.834;2023-02-17T01:46:49;102179.72;;;21.37;44.59
75936;BME280;64614;32.062;34.834;2023-02-17T01:49:34;102172.84;;;21.34;44.46
75936;BME280;64614;32.062;34.834;2023-02-17T01:57:01;102176.94;;;21.32;44.28
75936;BME280;64614;32.062;34.834;2023-02-17T01:59:29;102176.94;;;21.32;44.48
75936;BME280;64614;32.062;34.834;2023-02-17T02:01:57;102182.41;;;21.32;44.64
75936;BME280;64614;32.062;34.834;2023-02-17T02:04:26;102185.41;;;21.30;44.81
75936;BME280;64614;32.062;34.834;2023-02-17T02:06:53;102189.53;;;21.33;44.62
75936;BME280;64614;32.062;34.834;2023-02-17T02:09:22;102183.50;;;21.31;44.32
75936;BME280;64614;32.062;34.834;2023-02-17T02:11:51;102181.84;;;21.29;44.85
75936;BME280;64614;32.062;34.834;2023-02-17T02:14:18;102178.31;;;21.29;44.66
75936;BME280;64614;32.062;34.834;2023-02-17T02:28:17;102190.59;;;21.26;44.85
75936;BME280;64614;32.062;34.834;2023-02-17T02:33:50;102186.22;;;21.25;44.76
75936;BME280;64614;32.062;34.834;2023-02-17T02:36:33;102190.59;;;21.26;44.60
75936;BME280;64614;32.062;34.834;2023-02-17T02:39:06;102185.38;;;21.25;44.68
75936;BME280;64614;32.062;34.834;2023-02-17T02:41:40;102186.44;;;21.13;45.14
75936;BME280;64614;32.062;34.834;2023-02-17T02:44:09;102183.50;;;21.31;44.65
75936;BME280;64614;32.062;34.834;2023-02-17T02:46:35;102191.97;;;21.34;44.43
75936;BME280;64614;32.062;34.834;2023-02-17T02:49:01;102186.78;;;21.33;44.40
75936;BME280;64614;32.062;34.834;2023-02-17T02:51:51;102200.44;;;21.33;44.45
75936;BME280;64614;32.062;34.834;2023-02-17T02:54:26;102183.25;;;21.32;44.40
75936;BME280;64614;32.062;34.834;2023-02-17T03:10:04;102205.34;;;21.31;44.58
75936;BME280;64614;32.062;34.834;2023-02-17T03:12:30;102205.34;;;21.31;44.56
75936;BME280;64614;32.062;34.834;2023-02-17T03:15:02;102210.00;;;21.30;44.75
75936;BME280;64614;32.062;34.834;2023-02-17T03:17:31;102214.13;;;21.33;44.35
75936;BME280;64614;32.062;34.834;2023-02-17T03:19:59;102216.00;;;20.57;46.15
75936;BME280;64614;32.062;34.834;2023-02-17T03:22:34;102219.72;;;20.45;46.61
75936;BME280;64614;32.062;34.834;2023-02-17T03:25:01;102223.78;;;20.43;46.92
75936;BME280;64614;32.062;34.834;2023-02-17T03:27:27;102230.34;;;20.42;46.83
75936;BME280;64614;32.062;34.834;2023-02-17T03:29:53;102222.41;;;20.40;47.08
75936;BME280;64614;32.062;34.834;2023-02-17T03:32:20;102229.78;;;20.40;46.97
75936;BME280;64614;32.062;34.834;2023-02-17T03:34:45;102231.69;;;20.39;47.00
75936;BME280;64614;32.062;34.834;2023-02-17T03:37:11;102236.31;;;20.39;47.14
75936;BME280;64614;32.062;34.834;2023-02-17T03:39:37;102229.22;;;20.38;47.23
75936;BME280;64614;32.062;34.834;2023-02-17T03:42:05;102236.31;;;20.39;47.21
75936;BME280;64614;32.062;34.834;2023-02-17T03:44:32;102230.88;;;20.39;47.27
75936;BME280;64614;32.062;34.834;2023-02-17T03:46:58;102244.50;;;20.39;47.14
75936;BME280;64614;32.062;34.834;2023-02-17T03:49:23;102238.47;;;20.37;47.21
75936;BME280;64614;32.062;34.834;2023-02-17T03:51:49;102245.00;;;20.35;47.22
75936;BME280;64614;32.062;34.834;2023-02-17T03:54:15;102247.75;;;20.35;47.30
75936;BME280;64614;32.062;34.834;2023-02-17T03:56:40;102257.00;;;20.34;47.19
75936;BME280;64614;32.062;34.834;2023-02-17T03:59:06;102253.47;;;20.34;47.33
75936;BME280;64614;32.062;34.834;2023-02-17T04:01:32;102244.44;;;20.33;47.19
75936;BME280;64614;32.062;34.834;2023-02-17T04:03:58;102254.53;;;20.33;47.01
75936;BME280;64614;32.062;34.834;2023-02-17T04:06:24;102244.72;;;20.32;47.26
75936;BME280;64614;32.062;34.834;2023-02-17T04:08:50;102247.72;;;20.30;47.30
75936;BME280;64614;32.062;34.834;2023-02-17T04:13:42;102252.31;;;20.30;47.18
75936;BME280;64614;32.062;34.834;2023-02-17T04:16:08;102259.69;;;20.29;47.19
75936;BME280;64614;32.062;34.834;2023-02-17T04:18:34;102266.22;;;20.28;47.29
75936;BME280;64614;32.062;34.834;2023-02-17T04:21:00;102261.03;;;20.27;47.22
75936;BME280;64614;32.062;34.834;2023-02-17T04:23:27;102265.66;;;20.26;47.25
75936;BME280;64614;32.062;34.834;2023-02-17T04:25:53;102264.00;;;20.25;47.31
75936;BME280;64614;32.062;34.834;2023-02-17T04:28:19;102264.00;;;20.25;47.39
75936;BME280;64614;32.062;34.834;2023-02-17T04:30:46;102263.19;;;20.25;47.16
75936;BME280;64614;32.062;34.834;2023-02-17T04:33:12;102257.75;;;20.25;47.24
75936;BME280;64614;32.062;34.834;2023-02-17T04:35:38;102261.53;;;20.24;47.48
75936;BME280;64614;32.062;34.834;2023-02-17T04:38:05;102261.03;;;20.27;47.50
75936;BME280;64614;32.062;34.834;2023-02-17T04:40:33;102260.19;;;20.26;47.53
75936;BME280;64614;32.062;34.834;2023-02-17T04:42:59;102259.38;;;20.26;47.64
75936;BME280;64614;32.062;34.834;2023-02-17T04:45:26;102261.84;;;20.27;47.52
75936;BME280;64614;32.062;34.834;2023-02-17T04:47:52;102270.59;;;20.29;47.51
75936;BME280;64614;32.062;34.834;2023-02-17T04:50:17;102269.53;;;20.30;47.43
75936;BME280;64614;32.062;34.834;2023-02-17T04:52:43;102272.25;;;20.30;47.42
75936;BME280;64614;32.062;34.834;2023-02-17T04:55:09;102275.00;;;20.30;47.54
75936;BME280;64614;32.062;34.834;2023-02-17T04:57:34;102283.16;;;20.30;47.42
75936;BME280;64614;32.062;34.834;2023-02-17T05:00:04;102280.69;;;20.29;47.72
75936;BME280;64614;32.062;34.834;2023-02-17T05:02:30;102286.97;;;20.29;47.59
75936;BME280;64614;32.062;34.834;2023-02-17T05:04:55;102282.91;;;20.32;47.63
75936;BME280;64614;32.062;34.834;2023-02-17T05:07:22;102291.09;;;20.32;47.51
75936;BME280;64614;32.062;34.834;2023-02-17T05:09:50;102292.44;;;20.29;47.65
75936;BME280;64614;32.062;34.834;2023-02-17T05:12:17;102286.13;;;20.29;47.62
75936;BME280;64614;32.062;34.834;2023-02-17T05:14:43;102297.88;;;20.29;47.59
75936;BME280;64614;32.062;34.834;2023-02-17T05:17:09;102297.28;;;20.22;48.01
75936;BME280;64614;32.062;34.834;2023-02-17T05:19:34;102301.06;;;20.21;48.02
75936;BME280;64614;32.062;34.834;2023-02-17T05:22:01;102305.44;;;20.22;48.18
75936;BME280;64614;32.062;34.834;2023-02-17T05:24:27;102297.28;;;20.22;48.09
75936;BME280;64614;32.062;34.834;2023-02-17T05:26:53;102296.44;;;20.22;48.28
75936;BME280;64614;32.062;34.834;2023-02-17T05:29:18;102293.44;;;20.23;48.15
75936;BME280;64614;32.062;34.834;2023-02-17T05:31:44;102301.38;;;20.25;48.26
75936;BME280;64614;32.062;34.834;2023-02-17T05:34:11;102300.03;;;20.27;48.33
75936;BME280;64614;32.062;34.834;2023-02-17T05:36:37;102295.41;;;20.28;48.02
75936;BME280;64614;32.062;34.834;2023-02-17T05:39:02;102304.13;;;20.25;48.38
75936;BME280;64614;32.062;34.834;2023-02-17T05:41:28;102307.66;;;20.25;48.31
75936;BME280;64614;32.062;34.834;2023-02-17T05:43:54;102318.56;;;20.25;48.23
75936;BME280;64614;32.062;34.834;2023-02-17T05:46:19;102312.88;;;20.27;48.19
75936;BME280;64614;32.062;34.834;2023-02-17T05:48:49;102315.59;;;20.27;48.21
75936;BME280;64614;32.062;34.834;2023-02-17T05:51:15;102305.50;;;20.27;48.31
75936;BME280;64614;32.062;34.834;2023-02-17T05:53:43;102317.22;;;20.28;48.15
75936;BME280;64614;32.062;34.834;2023-02-17T05:58:35;102314.25;;;20.29;48.26
75936;BME280;64614;32.062;34.834;2023-02-17T06:01:01;102317.56;;;20.31;48.23
75936;BME280;64614;32.062;34.834;2023-02-17T06:03:26;102320.84;;;20.33;48.16
75936;BME280;64614;32.062;34.834;2023-02-17T06:05:52;102313.22;;;20.35;48.04
75936;BME280;64614;32.062;34.834;2023-02-17T06:08:18;102312.91;;;20.32;47.10
75936;BME280;64614;32.062;34.834;2023-02-17T06:10:43;102313.94;;;20.26;46.86
75936;BME280;64614;32.062;34.834;2023-02-17T06:13:09;102320.47;;;20.25;46.88
75936;BME280;64614;32.062;34.834;2023-02-17T06:15:35;102318.88;;;20.29;47.01
75936;BME280;64614;32.062;34.834;2023-02-17T06:18:00;102325.97;;;20.30;46.78
75936;BME280;64614;32.062;34.834;2023-02-17T06:20:26;102317.78;;;20.30;47.01
75936;BME280;64614;32.062;34.834;2023-02-17T06:22:53;102307.19;;;20.33;47.03
75936;BME280;64614;32.062;34.834;2023-02-17T06:25:18;102317.56;;;20.31;47.25
75936;BME280;64614;32.062;34.834;2023-02-17T06:27:44;102324.97;;;20.36;46.97
75936;BME280;64614;32.062;34.834;2023-02-17T06:30:10;102327.44;;;20.38;47.17
75936;BME280;64614;32.062;34.834;2023-02-17T06:32:36;102323.66;;;20.39;47.12
75936;BME280;64614;32.062;34.834;2023-02-17T06:35:02;102329.66;;;20.41;47.10
75936;BME280;64614;32.062;34.834;2023-02-17T06:37:28;102324.75;;;20.43;47.23
75936;BME280;64614;32.062;34.834;2023-02-17T06:39:53;102320.97;;;20.44;47.28
75936;BME280;64614;32.062;34.834;2023-02-17T06:42:20;102317.16;;;20.45;47.05
75936;BME280;64614;32.062;34.834;2023-02-17T06:44:45;102323.19;;;20.47;47.16
75936;BME280;64614;32.062;34.834;2023-02-17T06:47:12;102326.72;;;20.47;47.05
75936;BME280;64614;32.062;34.834;2023-02-17T06:49:38;102326.22;;;20.50;47.13
75936;BME280;64614;32.062;34.834;2023-02-17T06:52:05;102321.56;;;20.51;47.16
75936;BME280;64614;32.062;34.834;2023-02-17T06:54:31;102332.25;;;20.53;47.19
75936;BME280;64614;32.062;34.834;2023-02-17T06:56:57;102326.53;;;20.54;47.24
75936;BME280;64614;32.062;34.834;2023-02-17T06:59:22;102336.94;;;20.57;47.17
75936;BME280;64614;32.062;34.834;2023-02-17T07:01:48;102340.22;;;20.59;47.04
75936;BME280;64614;32.062;34.834;2023-02-17T07:04:15;102333.44;;;20.62;47.01
75936;BME280;64614;32.062;34.834;2023-02-17T07:06:40;102335.91;;;20.63;47.04
75936;BME280;64614;32.062;34.834;2023-02-17T07:09:07;102332.09;;;20.64;47.13
75936;BME280;64614;32.062;34.834;2023-02-17T07:11:36;102345.47;;;20.66;47.09
75936;BME280;64614;32.062;34.834;2023-02-17T07:16:38;102344.72;;;20.71;47.04
75936;BME280;64614;32.062;34.834;2023-02-17T07:19:04;102338.16;;;20.72;47.17
75936;BME280;64614;32.062;34.834;2023-02-17T07:21:30;102337.94;;;20.73;46.96
75936;BME280;64614;32.062;34.834;2023-02-17T07:23:55;102349.44;;;20.75;46.95
75936;BME280;64614;32.062;34.834;2023-02-17T07:26:21;102338.50;;;20.75;46.93
75936;BME280;64614;32.062;34.834;2023-02-17T07:28:47;102341.53;;;20.79;47.01
75936;BME280;64614;32.062;34.834;2023-02-17T07:31:15;102340.47;;;20.80;46.97
75936;BME280;64614;32.062;34.834;2023-02-17T07:33:42;102340.19;;;20.81;47.02
75936;BME280;64614;32.062;34.834;2023-02-17T07:36:15;102350.03;;;20.82;46.89
75936;BME280;64614;32.062;34.834;2023-02-17T07:38:41;102338.88;;;20.84;47.02
75936;BME280;64614;32.062;34.834;2023-02-17T07:41:16;102340.50;;;20.85;46.63
75936;BME280;64614;32.062;34.834;2023-02-17T07:43:42;102332.66;;;20.89;47.05
75936;BME280;64614;32.062;34.834;2023-02-17T07:46:09;102338.91;;;20.89;46.89
75936;BME280;64614;32.062;34.834;2023-02-17T07:51:13;102335.91;;;20.91;46.96
75936;BME280;64614;32.062;34.834;2023-02-17T07:53:39;102337.56;;;20.92;46.98
75936;BME280;64614;32.062;34.834;2023-02-17T07:56:07;102335.91;;;20.91;46.87
75936;BME280;64614;32.062;34.834;2023-02-17T07:58:36;102335.09;;;20.90;47.24
75936;BME280;64614;32.062;34.834;2023-02-17T08:01:10;102336.75;;;20.91;47.07
75936;BME280;64614;32.062;34.834;2023-02-17T08:03:38;102337.56;;;20.92;47.00
75936;BME280;64614;32.062;34.834;2023-02-17T08:06:17;102343.03;;;20.92;47.12
75936;BME280;64614;32.062;34.834;2023-02-17T08:08:43;102332.69;;;20.94;47.01
75936;BME280;64614;32.062;34.834;2023-02-17T08:11:28;102333.50;;;20.94;47.02
75936;BME280;64614;32.062;34.834;2023-02-17T08:14:12;102323.69;;;20.93;46.98
75936;BME280;64614;32.062;34.834;2023-02-17T08:16:38;102323.41;;;20.95;47.11
75936;BME280;64614;32.062;34.834;2023-02-17T08:19:04;102328.59;;;20.96;46.88
75936;BME280;64614;32.062;34.834;2023-02-17T08:21:29;102339.53;;;20.96;47.09
75936;BME280;64614;32.062;34.834;2023-02-17T08:23:55;102335.72;;;20.97;47.14
75936;BME280;64614;32.062;34.834;2023-02-17T08:26:21;102328.09;;;21.00;47.07
75936;BME280;64614;32.062;34.834;2023-02-17T08:28:47;102331.63;;;21.00;47.18
75936;BME280;64614;32.062;34.834;2023-02-17T08:31:25;102323.19;;;21.02;47.21
75936;BME280;64614;32.062;34.834;2023-02-17T08:33:51;102325.94;;;21.02;46.49
75936;BME280;64614;32.062;34.834;2023-02-17T08:36:17;102330.75;;;20.94;43.73
75936;BME280;64614;32.062;34.834;2023-02-17T08:38:45;102314.81;;;20.81;41.50
75936;BME280;64614;32.062;34.834;2023-02-17T08:43:50;102327.34;;;20.55;39.08
75936;BME280;64614;32.062;34.834;2023-02-17T08:46:17;102321.47;;;20.41;38.33
75936;BME280;64614;32.062;34.834;2023-02-17T08:48:44;102322.50;;;20.34;37.83
75936;BME280;64614;32.062;34.834;2023-02-17T08:51:14;102307.47;;;20.32;38.20
75936;BME280;64614;32.062;34.834;2023-02-17T08:53:42;102315.38;;;20.33;38.67
75936;BME280;64614;32.062;34.834;2023-02-17T08:56:08;102315.97;;;20.35;39.44
75936;BME280;64614;32.062;34.834;2023-02-17T08:58:34;102302.88;;;20.38;38.30
75936;BME280;64614;32.062;34.834;2023-02-17T09:01:00;102306.13;;;20.34;38.31
75936;BME280;64614;32.062;34.834;2023-02-17T09:03:27;102302.94;;;20.43;39.45
75936;BME280;64614;32.062;34.834;2023-02-17T09:05:54;102310.13;;;20.49;40.31
75936;BME280;64614;32.062;34.834;2023-02-17T09:08:20;102305.50;;;20.55;40.90
75936;BME280;64614;32.062;34.834;2023-02-17T09:10:48;102292.75;;;20.60;41.18
75936;BME280;64614;32.062;34.834;2023-02-17T09:13:14;102301.00;;;20.65;41.41
75936;BME280;64614;32.062;34.834;2023-02-17T09:15:40;102289.03;;;20.72;41.71
75936;BME280;64614;32.062;34.834;2023-02-17T09:18:06;102295.66;;;20.76;41.78
75936;BME280;64614;32.062;34.834;2023-02-17T09:20:32;102285.84;;;20.80;41.84
75936;BME280;64614;32.062;34.834;2023-02-17T09:22:58;102289.97;;;20.82;41.93
75936;BME280;64614;32.062;34.834;2023-02-17T09:25:23;102282.66;;;20.88;42.06
75936;BME280;64614;32.062;34.834;2023-02-17T09:27:49;102277.75;;;20.90;41.94
75936;BME280;64614;32.062;34.834;2023-02-17T09:30:15;102282.94;;;20.92;42.02
75936;BME280;64614;32.062;34.834;2023-02-17T09:32:42;102278.88;;;20.94;41.93
75936;BME280;64614;32.062;34.834;2023-02-17T09:35:12;102277.28;;;20.98;42.18
75936;BME280;64614;32.062;34.834;2023-02-17T09:37:38;102271.53;;;21.00;42.41
75936;BME280;64614;32.062;34.834;2023-02-17T09:40:04;102256.53;;;21.03;42.22
75936;BME280;64614;32.062;34.834;2023-02-17T09:42:37;102253.28;;;21.06;42.28
75936;BME280;64614;32.062;34.834;2023-02-17T09:45:06;102248.13;;;21.09;42.38
75936;BME280;64614;32.062;34.834;2023-02-17T09:47:44;102246.78;;;21.12;42.39
75936;BME280;64614;32.062;34.834;2023-02-17T09:50:15;102247.34;;;21.14;42.36
75936;BME280;64614;32.062;34.834;2023-02-17T09:53:29;102244.91;;;21.18;42.47
75936;BME280;64614;32.062;34.834;2023-02-17T09:55:52;102240.56;;;21.22;42.68
75936;BME280;64614;32.062;34.834;2023-02-17T09:58:33;102235.41;;;21.25;42.73
75936;BME280;64614;32.062;34.834;2023-02-17T10:01:07;102227.75;;;21.27;42.70
75936;BME280;64614;32.062;34.834;2023-02-17T10:03:56;102212.75;;;21.30;42.87
75936;BME280;64614;32.062;34.834;2023-02-17T10:06:35;102214.13;;;21.38;42.71
75936;BME280;64614;32.062;34.834;2023-02-17T10:11:51;102204.31;;;21.42;42.86
75936;BME280;64614;32.062;34.834;2023-02-17T10:14:38;102208.97;;;21.41;43.01
75936;BME280;64614;32.062;34.834;2023-02-17T10:20:27;102192.88;;;21.50;42.84
75936;BME280;64614;32.062;34.834;2023-02-17T10:23:03;102189.34;;;21.55;42.63
75936;BME280;64614;32.062;34.834;2023-02-17T10:34:32;102182.59;;;21.63;43.10
75936;BME280;64614;32.062;34.834;2023-02-17T10:39:53;102169.44;;;21.65;43.05
75936;BME280;64614;32.062;34.834;2023-02-17T10:44:49;102155.25;;;21.68;42.77
75936;BME280;64614;32.062;34.834;2023-02-17T10:47:17;102162.38;;;21.69;42.97
75936;BME280;64614;32.062;34.834;2023-02-17T10:49:47;102161.81;;;21.67;42.66
75936;BME280;64614;32.062;34.834;2023-02-17T10:52:21;102169.75;;;21.68;42.83
75936;BME280;64614;32.062;34.834;2023-02-17T10:55:04;102161.84;;;21.72;42.97
75936;BME280;64614;32.062;34.834;2023-02-17T11:00:14;102159.94;;;21.83;42.63
75936;BME280;64614;32.062;34.834;2023-02-17T11:02:42;102148.19;;;21.87;42.16
75936;BME280;64614;32.062;34.834;2023-02-17T11:05:26;102149.28;;;21.86;42.53
75936;BME280;64614;32.062;34.834;2023-02-17T11:08:18;102152.84;;;21.87;42.56
75936;BME280;64614;32.062;34.834;2023-02-17T11:11:04;102142.16;;;21.80;42.46
75936;BME280;64614;32.062;34.834;2023-02-17T11:13:37;102144.06;;;21.80;42.58
75936;BME280;64614;32.062;34.834;2023-02-17T11:16:05;102130.16;;;21.81;42.53
75936;BME280;64614;32.062;34.834;2023-02-17T11:18:35;102145.44;;;21.82;42.49
75936;BME280;64614;32.062;34.834;2023-02-17T11:21:06;102134.25;;;21.84;42.56
75936;BME280;64614;32.062;34.834;2023-02-17T11:23:54;102132.06;;;21.86;42.65
75936;BME280;64614;32.062;34.834;2023-02-17T11:26:24;102129.59;;;21.84;42.50
75936;BME280;64614;32.062;34.834;2023-02-17T11:28:51;102120.81;;;21.72;38.06
75936;BME280;64614;32.062;34.834;2023-02-17T11:31:27;102121.81;;;21.55;38.39
75936;BME280;64614;32.062;34.834;2023-02-17T11:33:53;102133.84;;;21.49;39.63
75936;BME280;64614;32.062;34.834;2023-02-17T11:36:28;102125.91;;;21.48;40.11
75936;BME280;64614;32.062;34.834;2023-02-17T11:41:20;102120.44;;;21.53;40.61
75936;BME280;64614;32.062;34.834;2023-02-17T11:43:56;102123.47;;;21.56;40.58
75936;BME280;64614;32.062;34.834;2023-02-17T11:46:29;102128.66;;;21.53;37.56
75936;BME280;64614;32.062;34.834;2023-02-17T11:54:22;102124.38;;;21.09;35.44
75936;BME280;64614;32.062;34.834;2023-02-17T11:56:59;102131.16;;;20.96;35.45
75936;BME280;64614;32.062;34.834;2023-02-17T12:00:12;102127.22;;;20.81;34.43
75936;BME280;64614;32.062;34.834;2023-02-17T12:13:30;102123.09;;;20.74;37.07
75936;BME280;64614;32.062;34.834;2023-02-17T12:16:28;102117.72;;;20.84;37.64
75936;BME280;64614;32.062;34.834;2023-02-17T12:22:01;102129.28;;;21.02;38.51
75936;BME280;64614;32.062;34.834;2023-02-17T12:25:10;102120.56;;;21.10;38.78
75936;BME280;64614;32.062;34.834;2023-02-17T12:33:31;102133.47;;;21.25;39.53
75936;BME280;64614;32.062;34.834;2023-02-17T12:36:10;102129.41;;;21.27;39.62
75936;BME280;64614;32.062;34.834;2023-02-17T12:41:13;102122.56;;;21.35;40.00
75936;BME280;64614;32.062;34.834;2023-02-17T12:46:17;102120.13;;;21.39;40.11
75936;BME280;64614;32.062;34.834;2023-02-17T12:49:02;102106.47;;;21.39;39.95
75936;BME280;64614;32.062;34.834;2023-02-17T12:52:11;102118.53;;;21.43;40.00
75936;BME280;64614;32.062;34.834;2023-02-17T12:54:48;102112.22;;;21.42;40.13
75936;BME280;64614;32.062;34.834;2023-02-17T12:57:26;102117.97;;;21.41;39.97
75936;BME280;64614;32.062;34.834;2023-02-17T12:59:55;102113.06;;;21.43;39.78
75936;BME280;64614;32.062;34.834;2023-02-17T13:02:24;102116.63;;;21.49;39.71
75936;BME280;64614;32.062;34.834;2023-02-17T13:04:55;102106.25;;;21.51;39.98
75936;BME280;64614;32.062;34.834;2023-02-17T13:07:49;102114.97;;;21.53;40.03
75936;BME280;64614;32.062;34.834;2023-02-17T13:10:17;102103.81;;;21.54;39.96
75936;BME280;64614;32.062;34.834;2023-02-17T13:13:24;102109.78;;;21.56;39.68
75936;BME280;64614;32.062;34.834;2023-02-17T13:15:45;102105.41;;;21.55;39.94
75936;BME280;64614;32.062;34.834;2023-02-17T13:18:27;102099.94;;;21.55;39.84
75936;BME280;64614;32.062;34.834;2023-02-17T13:21:00;102113.63;;;21.55;39.69
75936;BME280;64614;32.062;34.834;2023-02-17T13:23:39;102103.81;;;21.54;39.79
75936;BME280;64614;32.062;34.834;2023-02-17T13:28:39;102117.47;;;21.54;39.76
75936;BME280;64614;32.062;34.834;2023-02-17T13:31:25;102109.28;;;21.54;39.88
75936;BME280;64614;32.062;34.834;2023-02-17T13:33:53;102120.19;;;21.54;39.68
75936;BME280;64614;32.062;34.834;2023-02-17T13:36:40;102120.19;;;21.54;39.83
75936;BME280;64614;32.062;34.834;2023-02-17T13:41:57;102125.91;;;21.53;39.50
75936;BME280;64614;32.062;34.834;2023-02-17T13:44:27;102127.84;;;21.52;39.50
75936;BME280;64614;32.062;34.834;2023-02-17T13:47:00;102130.56;;;21.52;39.54
75936;BME280;64614;32.062;34.834;2023-02-17T13:49:28;102129.75;;;21.52;39.58
75936;BME280;64614;32.062;34.834;2023-02-17T13:52:10;102136.56;;;21.49;39.60
75936;BME280;64614;32.062;34.834;2023-02-17T13:54:37;102148.31;;;21.44;39.47
75936;BME280;64614;32.062;34.834;2023-02-17T13:57:03;102135.47;;;21.45;39.66
75936;BME280;64614;32.062;34.834;2023-02-17T13:59:28;102144.75;;;21.44;39.62
75936;BME280;64614;32.062;34.834;2023-02-17T14:01:54;102149.38;;;21.43;39.72
75936;BME280;64614;32.062;34.834;2023-02-17T14:04:24;102138.72;;;21.42;39.69
75936;BME280;64614;32.062;34.834;2023-02-17T14:06:51;102143.41;;;21.41;39.16
75936;BME280;64614;32.062;34.834;2023-02-17T14:09:29;102148.84;;;21.41;39.27
75936;BME280;64614;32.062;34.834;2023-02-17T14:11:56;102144.47;;;21.40;39.49
75936;BME280;64614;32.062;34.834;2023-02-17T14:14:27;102147.47;;;21.39;39.45
75936;BME280;64614;32.062;34.834;2023-02-17T14:17:14;102149.38;;;21.38;39.40
75936;BME280;64614;32.062;34.834;2023-02-17T14:19:50;102144.72;;;21.39;39.39
75936;BME280;64614;32.062;34.834;2023-02-17T14:22:31;102155.13;;;21.37;39.41
75936;BME280;64614;32.062;34.834;2023-02-17T14:25:00;102153.78;;;21.44;39.01
75936;BME280;64614;32.062;34.834;2023-02-17T14:27:39;102153.53;;;21.46;38.89
75936;BME280;64614;32.062;34.834;2023-02-17T14:30:11;102154.09;;;21.53;38.96
75936;BME280;64614;32.062;34.834;2023-02-17T14:32:37;102156.00;;;21.53;38.72
75936;BME280;64614;32.062;34.834;2023-02-17T14:37:38;102159.56;;;21.53;38.93
75936;BME280;64614;32.062;34.834;2023-02-17T14:40:22;102164.75;;;21.55;38.74
75936;BME280;64614;32.062;34.834;2023-02-17T14:42:51;102160.38;;;21.54;38.64
75936;BME280;64614;32.062;34.834;2023-02-17T14:45:19;102175.69;;;21.55;39.08